Time;durP1;ratioP1;P1;durP2;ratioP2;P2;SDS_P1;SDS_P2;PMS_P1;PMS_P2;Temp;Humidity;BMP_temperature;BMP_pressure;BME280_temperature;BME280_humidity;BME280_pressure;Samples;Min_cycle;Max_cycle;Signal;HPM_P1;HPM_P2
2022/07/06 00:01:20;;;;;;;2.93;1.50;;;14.50;99.90;;;;;;5088738;28;20364;-83
2022/07/06 00:03:45;;;;;;;3.92;1.50;;;14.50;99.90;;;;;;5088769;28;20860;-83
2022/07/06 00:06:11;;;;;;;2.03;1.30;;;14.50;99.90;;;;;;5090452;28;20409;-83
2022/07/06 00:08:37;;;;;;;2.57;1.50;;;14.50;99.90;;;;;;5089991;28;20396;-83
2022/07/06 00:11:03;;;;;;;3.17;1.50;;;14.30;99.90;;;;;;5089478;28;20401;-83
2022/07/06 00:13:29;;;;;;;3.70;1.67;;;14.20;99.90;;;;;;5090091;28;20369;-83
2022/07/06 00:15:55;;;;;;;2.70;1.40;;;14.30;99.90;;;;;;5090326;28;20369;-83
2022/07/06 00:18:20;;;;;;;3.50;1.42;;;14.20;99.90;;;;;;5090070;28;20380;-83
2022/07/06 00:20:46;;;;;;;4.67;1.63;;;14.20;99.90;;;;;;5090047;28;20407;-83
2022/07/06 00:23:12;;;;;;;2.87;1.70;;;14.10;99.90;;;;;;5088639;28;20467;-82
2022/07/06 00:25:37;;;;;;;3.55;1.50;;;14.10;99.90;;;;;;5088100;28;20465;-82
2022/07/06 00:28:03;;;;;;;2.60;1.43;;;13.90;99.90;;;;;;5088317;28;20430;-82
2022/07/06 00:30:29;;;;;;;2.50;1.50;;;14.00;99.90;;;;;;5087628;28;20385;-83
2022/07/06 00:32:55;;;;;;;2.15;1.58;;;13.90;99.90;;;;;;5087978;28;20484;-82
2022/07/06 00:35:21;;;;;;;2.60;1.58;;;13.90;99.90;;;;;;5088603;28;20465;-81
2022/07/06 00:37:46;;;;;;;1.80;1.63;;;14.00;99.90;;;;;;5088568;28;20455;-82
2022/07/06 00:40:12;;;;;;;3.97;1.70;;;14.20;99.90;;;;;;5088831;28;20723;-84
2022/07/06 00:42:43;;;;;;;4.07;1.55;;;14.40;99.90;;;;;;5088840;28;20416;-84
2022/07/06 00:45:09;;;;;;;2.13;1.60;;;14.20;99.90;;;;;;5089354;28;20368;-81
2022/07/06 00:47:35;;;;;;;2.83;1.40;;;14.30;99.90;;;;;;5088106;28;20453;-84
2022/07/06 00:50:14;;;;;;;3.28;1.80;;;14.30;99.90;;;;;;5088957;28;20507;-83
2022/07/06 00:53:02;;;;;;;3.22;1.50;;;14.50;99.90;;;;;;5087690;28;20410;-83
2022/07/06 00:55:30;;;;;;;2.45;1.50;;;14.50;99.90;;;;;;5087758;28;20858;-83
2022/07/06 00:57:56;;;;;;;3.27;1.80;;;14.60;99.90;;;;;;5088075;28;20388;-83
2022/07/06 01:00:24;;;;;;;2.60;1.33;;;14.60;99.90;;;;;;5087813;28;20445;-84
2022/07/06 01:02:51;;;;;;;2.75;1.70;;;14.60;99.90;;;;;;5088637;28;20438;-83
2022/07/06 01:05:17;;;;;;;2.55;1.67;;;14.70;99.90;;;;;;5089405;28;20404;-84
2022/07/06 01:07:44;;;;;;;2.25;1.60;;;14.70;99.90;;;;;;5089023;28;20406;-84
2022/07/06 01:10:12;;;;;;;2.35;1.60;;;14.80;99.90;;;;;;5087120;28;20450;-83
2022/07/06 01:12:39;;;;;;;5.65;1.70;;;14.80;99.90;;;;;;5087003;28;20407;-82
2022/07/06 01:15:07;;;;;;;2.95;1.73;;;14.80;99.90;;;;;;5087556;28;20942;-83
2022/07/06 01:17:33;;;;;;;3.83;1.70;;;14.80;99.90;;;;;;5087573;28;20376;-83
2022/07/06 01:20:10;;;;;;;2.28;1.40;;;14.90;99.90;;;;;;5089183;28;20376;-83
2022/07/06 01:22:36;;;;;;;3.20;1.70;;;14.90;99.90;;;;;;5088556;28;20368;-83
2022/07/06 01:25:02;;;;;;;2.00;1.42;;;14.90;99.90;;;;;;5088745;28;20379;-83
2022/07/06 01:27:27;;;;;;;2.67;1.70;;;14.90;99.90;;;;;;5087149;28;20384;-83
2022/07/06 01:29:56;;;;;;;2.70;1.47;;;;;;;;;;5088664;28;20878;-83
2022/07/06 01:32:22;;;;;;;4.20;1.80;;;;;;;;;;5086950;28;20377;-84
2022/07/06 01:34:48;;;;;;;4.18;1.42;;;;;;;;;;5088347;28;20383;-82
2022/07/06 01:37:14;;;;;;;2.55;1.40;;;;;;;;;;5087135;28;20380;-83
2022/07/06 01:39:40;;;;;;;1.80;1.63;;;;;;;;;;5088792;28;20376;-84
2022/07/06 01:42:06;;;;;;;1.63;1.35;;;;;;;;;;5086784;28;20862;-83
2022/07/06 01:44:32;;;;;;;3.00;1.83;;;;;;;;;;5088587;28;20361;-82
2022/07/06 01:46:58;;;;;;;2.53;1.35;;;;;;;;;;5087394;28;20421;-83
2022/07/06 01:49:24;;;;;;;2.78;1.50;;;;;;;;;;5088285;28;20392;-83
2022/07/06 01:51:50;;;;;;;1.85;1.20;;;;;;;;;;5087247;28;20408;-84
2022/07/06 01:54:16;;;;;;;4.38;1.70;;;;;;;;;;5090201;28;20371;-83
2022/07/06 01:56:42;;;;;;;4.22;1.58;;;;;;;;;;5091982;28;20824;-84
2022/07/06 01:59:09;;;;;;;3.00;1.70;;;;;;;;;;5091293;28;20368;-82
2022/07/06 02:01:35;;;;;;;2.60;1.70;;;;;;;;;;5090744;28;20796;-82
2022/07/06 02:04:01;;;;;;;3.45;1.70;;;;;;;;;;5092349;28;20454;-82
2022/07/06 02:06:27;;;;;;;2.07;1.40;;;;;;;;;;5092516;28;20930;-83
2022/07/06 02:08:54;;;;;;;2.53;1.63;;;;;;;;;;5091962;28;20976;-82
2022/07/06 02:11:20;;;;;;;4.13;1.80;;;;;;;;;;5090058;28;21067;-82
2022/07/06 02:13:46;;;;;;;3.60;1.95;;;;;;;;;;5092289;28;20443;-82
2022/07/06 02:16:11;;;;;;;3.60;1.80;;;15.70;99.90;;;;;;5092426;28;20368;-83
2022/07/06 02:18:37;;;;;;;3.20;1.77;;;15.60;99.90;;;;;;5090648;28;20726;-83
2022/07/06 02:21:04;;;;;;;3.67;2.00;;;15.50;99.90;;;;;;5090105;28;20412;-82
2022/07/06 02:23:30;;;;;;;4.53;1.77;;;15.50;99.90;;;;;;5091988;28;20372;-83
2022/07/06 02:25:56;;;;;;;4.05;1.80;;;15.50;99.90;;;;;;5090389;28;20464;-82
2022/07/06 02:28:21;;;;;;;3.67;2.40;;;15.50;99.90;;;;;;5091834;28;20402;-83
2022/07/06 02:30:47;;;;;;;5.00;2.17;;;15.60;99.90;;;;;;5091648;28;20379;-83
2022/07/06 02:33:13;;;;;;;3.72;1.80;;;15.50;99.90;;;;;;5092019;28;21094;-82
2022/07/06 02:35:42;;;;;;;2.50;1.70;;;15.60;99.90;;;;;;5090535;28;20476;-82
2022/07/06 02:38:08;;;;;;;3.83;1.92;;;15.40;99.90;;;;;;5090457;28;20380;-82
2022/07/06 02:40:33;;;;;;;4.00;2.05;;;15.40;99.90;;;;;;5090006;28;20799;-82
2022/07/06 02:42:59;;;;;;;3.08;1.90;;;15.40;99.90;;;;;;5091424;28;20479;-82
2022/07/06 02:45:25;;;;;;;4.03;1.90;;;15.30;99.90;;;;;;5091493;28;20364;-82
2022/07/06 02:47:50;;;;;;;4.25;1.90;;;15.30;99.90;;;;;;5089954;28;20368;-82
2022/07/06 02:50:17;;;;;;;5.18;1.75;;;15.20;99.90;;;;;;5090012;28;20404;-81
2022/07/06 02:52:42;;;;;;;1.98;1.70;;;15.20;99.90;;;;;;5090791;28;20409;-82
2022/07/06 02:55:08;;;;;;;5.57;2.30;;;15.20;99.90;;;;;;5091467;28;20383;-82
2022/07/06 02:57:34;;;;;;;4.05;2.05;;;15.10;99.90;;;;;;5090625;28;20407;-82
2022/07/06 02:59:59;;;;;;;3.45;2.22;;;15.10;99.90;;;;;;5091414;28;20889;-82
2022/07/06 03:02:25;;;;;;;4.67;2.30;;;15.00;99.90;;;;;;5090512;28;20451;-82
2022/07/06 03:04:50;;;;;;;3.35;1.98;;;14.90;99.90;;;;;;5091298;28;20376;-82
2022/07/06 03:07:16;;;;;;;3.93;2.00;;;14.80;99.90;;;;;;5091191;28;20490;-81
2022/07/06 03:09:42;;;;;;;2.72;1.70;;;14.70;99.90;;;;;;5091314;28;20400;-82
2022/07/06 03:12:08;;;;;;;4.33;1.93;;;14.60;99.90;;;;;;5090482;28;20399;-81
2022/07/06 03:14:33;;;;;;;3.00;1.95;;;14.60;99.90;;;;;;5089799;28;20372;-82
2022/07/06 03:16:59;;;;;;;2.63;1.90;;;14.60;99.90;;;;;;5094307;28;20854;-81
2022/07/06 03:19:24;;;;;;;3.10;1.90;;;14.70;99.90;;;;;;5091670;28;20433;-81
2022/07/06 03:21:50;;;;;;;3.97;2.17;;;14.60;99.90;;;;;;5090887;28;20747;-82
2022/07/06 03:24:16;;;;;;;3.85;2.13;;;14.60;99.90;;;;;;5091065;28;20369;-83
2022/07/06 03:26:42;;;;;;;7.77;2.43;;;14.60;99.90;;;;;;5090097;28;20784;-82
2022/07/06 03:29:08;;;;;;;3.58;1.90;;;14.80;99.90;;;;;;5090865;28;20723;-82
2022/07/06 03:31:35;;;;;;;3.33;1.80;;;14.60;99.90;;;;;;5088703;28;20409;-81
2022/07/06 03:34:00;;;;;;;9.87;3.53;;;14.60;99.90;;;;;;5090438;28;20401;-82
2022/07/06 03:36:26;;;;;;;4.93;2.05;;;14.60;99.90;;;;;;5090643;28;20373;-82
2022/07/06 03:38:52;;;;;;;3.92;2.15;;;14.80;99.90;;;;;;5090771;28;20708;-82
2022/07/06 03:41:17;;;;;;;3.67;1.90;;;14.90;99.90;;;;;;5089914;28;20862;-82
2022/07/06 03:43:43;;;;;;;5.88;2.30;;;14.80;99.90;;;;;;5089736;28;20427;-82
2022/07/06 03:46:09;;;;;;;5.90;2.20;;;14.70;99.90;;;;;;5090214;28;20377;-81
2022/07/06 03:48:34;;;;;;;4.05;2.10;;;14.60;99.90;;;;;;5090287;28;20431;-82
2022/07/06 03:51:00;;;;;;;3.80;1.67;;;14.60;99.90;;;;;;5089946;28;20373;-82
2022/07/06 03:53:26;;;;;;;5.67;1.93;;;14.60;99.90;;;;;;5090193;28;20388;-82
2022/07/06 03:58:36;;;;;;;4.55;1.95;;;14.70;99.90;;;;;;5089574;28;20391;-81
2022/07/06 04:01:02;;;;;;;4.93;2.10;;;14.70;99.90;;;;;;5089750;28;20731;-82
2022/07/06 04:03:27;;;;;;;6.97;2.00;;;14.80;99.90;;;;;;5089923;28;20464;-82
2022/07/06 04:05:53;;;;;;;4.82;2.30;;;14.80;99.90;;;;;;5090030;28;20388;-82
2022/07/06 04:08:19;;;;;;;4.00;2.07;;;14.90;99.90;;;;;;5088782;28;20377;-82
2022/07/06 04:10:45;;;;;;;3.08;1.85;;;15.00;99.90;;;;;;5088248;28;20368;-81
2022/07/06 04:13:11;;;;;;;5.65;2.35;;;15.10;99.90;;;;;;5088257;28;20962;-82
2022/07/06 04:15:36;;;;;;;4.95;1.85;;;15.20;99.90;;;;;;5088571;28;20377;-82
2022/07/06 04:18:02;;;;;;;4.47;2.10;;;15.30;99.90;;;;;;5089548;28;20455;-82
2022/07/06 04:20:28;;;;;;;6.68;1.83;;;15.40;99.90;;;;;;5089359;28;20463;-83
2022/07/06 04:22:53;;;;;;;5.23;1.90;;;15.30;99.90;;;;;;5090022;28;20371;-82
2022/07/06 04:25:19;;;;;;;6.45;2.08;;;15.30;99.90;;;;;;5090017;28;20368;-82
2022/07/06 04:27:45;;;;;;;6.63;2.47;;;15.40;99.90;;;;;;5089228;28;20495;-81
2022/07/06 04:30:11;;;;;;;3.20;1.80;;;15.40;99.90;;;;;;5089703;28;20904;-82
2022/07/06 04:32:37;;;;;;;7.32;2.33;;;15.40;99.90;;;;;;5087905;28;20473;-81
2022/07/06 04:35:04;;;;;;;5.23;2.60;;;15.30;99.90;;;;;;5088450;28;20519;-82
2022/07/06 04:37:30;;;;;;;5.13;2.03;;;15.30;99.90;;;;;;5089434;28;20420;-82
2022/07/06 04:39:56;;;;;;;5.30;1.93;;;15.40;99.90;;;;;;5089487;28;20806;-82
2022/07/06 04:42:21;;;;;;;5.18;1.88;;;15.50;99.90;;;;;;5088654;28;20371;-81
2022/07/06 04:44:47;;;;;;;3.20;1.60;;;15.70;99.90;;;;;;5090900;28;20391;-81
2022/07/06 04:47:13;;;;;;;5.80;1.70;;;15.80;99.90;;;;;;5089074;28;20392;-83
2022/07/06 04:49:39;;;;;;;4.57;1.85;;;16.00;99.90;;;;;;5089216;28;20431;-81
2022/07/06 04:52:05;;;;;;;4.07;1.80;;;16.30;99.90;;;;;;5087796;28;20819;-82
2022/07/06 04:54:31;;;;;;;7.25;1.70;;;16.60;99.90;;;;;;5087793;28;20893;-81
2022/07/06 04:56:56;;;;;;;4.57;1.73;;;16.80;99.90;;;;;;5088065;28;20377;-82
2022/07/06 04:59:22;;;;;;;5.97;2.00;;;16.70;99.90;;;;;;5089027;28;20379;-82
2022/07/06 05:01:48;;;;;;;5.47;2.03;;;16.70;99.90;;;;;;5089018;28;20756;-82
2022/07/06 05:04:13;;;;;;;4.03;1.57;;;16.70;99.90;;;;;;5089505;28;20836;-81
2022/07/06 05:06:40;;;;;;;4.93;1.70;;;17.30;99.90;;;;;;5089421;28;20734;-82
2022/07/06 05:09:06;;;;;;;5.63;1.60;;;17.70;99.90;;;;;;5089851;28;21197;-82
2022/07/06 05:11:31;;;;;;;5.95;1.88;;;18.00;99.90;;;;;;5088932;28;20730;-82
2022/07/06 05:13:57;;;;;;;5.13;1.63;;;17.90;99.90;;;;;;5086967;28;20392;-81
2022/07/06 05:16:23;;;;;;;4.70;1.70;;;18.00;99.90;;;;;;5089028;28;21024;-80
2022/07/06 05:18:48;;;;;;;4.60;1.60;;;18.00;99.90;;;;;;5089567;28;20853;-82
2022/07/06 05:21:14;;;;;;;6.15;2.10;;;18.10;99.90;;;;;;5089020;28;20738;-83
2022/07/06 05:23:40;;;;;;;4.37;1.70;;;18.20;99.90;;;;;;5088033;28;20369;-82
2022/07/06 05:26:06;;;;;;;5.75;1.85;;;18.50;99.90;;;;;;5089398;28;20841;-83
2022/07/06 05:28:31;;;;;;;6.30;1.75;;;18.60;99.90;;;;;;5083236;28;20400;-83
2022/07/06 05:30:57;;;;;;;6.57;2.20;;;18.30;99.90;;;;;;5071007;28;20409;-82
2022/07/06 05:33:23;;;;;;;6.15;1.98;;;18.30;99.90;;;;;;5071597;28;20390;-83
2022/07/06 05:35:48;;;;;;;5.30;1.50;;;18.30;99.90;;;;;;5070940;28;20465;-82
2022/07/06 05:38:14;;;;;;;5.90;1.73;;;18.50;99.90;;;;;;5071979;28;20378;-82
2022/07/06 05:40:40;;;;;;;5.03;1.70;;;18.50;99.90;;;;;;5070855;28;20380;-82
2022/07/06 05:43:05;;;;;;;3.25;1.60;;;18.50;99.90;;;;;;5071742;28;20378;-82
2022/07/06 05:45:31;;;;;;;5.33;1.80;;;18.50;99.90;;;;;;5070725;28;20374;-83
2022/07/06 05:50:41;;;;;;;4.47;1.88;;;18.40;99.90;;;;;;5073116;28;20503;-82
2022/07/06 05:53:07;;;;;;;3.72;1.90;;;18.50;99.90;;;;;;5055715;28;20425;-84
2022/07/06 05:55:33;;;;;;;5.50;1.80;;;18.40;99.90;;;;;;5072043;28;20760;-81
2022/07/06 05:57:58;;;;;;;4.45;1.65;;;18.50;99.90;;;;;;5072784;28;20401;-83
2022/07/06 06:00:26;;;;;;;6.25;1.92;;;18.70;99.90;;;;;;5072010;28;20910;-83
2022/07/06 06:02:52;;;;;;;4.43;1.58;;;18.90;99.90;;;;;;5073208;28;21202;-83
2022/07/06 06:05:18;;;;;;;3.28;1.60;;;19.20;99.90;;;;;;5073042;28;20381;-82
2022/07/06 06:07:44;;;;;;;6.47;1.70;;;19.60;99.90;;;;;;5072670;28;20403;-82
2022/07/06 06:10:12;;;;;;;5.13;1.80;;;19.60;99.90;;;;;;5072958;28;20397;-83
2022/07/06 06:12:39;;;;;;;3.88;1.65;;;19.60;99.90;;;;;;5071185;28;20818;-81
2022/07/06 06:15:05;;;;;;;5.53;1.55;;;19.50;99.90;;;;;;5072713;28;20390;-82
2022/07/06 06:17:31;;;;;;;3.88;1.63;;;19.50;99.90;;;;;;5071489;28;20386;-83
2022/07/06 06:19:58;;;;;;;3.92;1.52;;;19.70;99.90;;;;;;5071052;28;20469;-82
2022/07/06 06:22:24;;;;;;;3.90;1.77;;;20.10;99.90;;;;;;5071282;28;20752;-84
2022/07/06 06:24:50;;;;;;;3.93;1.40;;;20.20;99.90;;;;;;5072444;28;20378;-82
2022/07/06 06:27:16;;;;;;;6.65;1.90;;;20.30;99.90;;;;;;5077623;28;20408;-84
2022/07/06 06:29:43;;;;;;;4.80;1.20;;;20.30;99.90;;;;;;5079290;28;20893;-83
2022/07/06 06:32:10;;;;;;;4.68;1.83;;;;;;;;;;5072659;28;20370;-82
2022/07/06 06:34:36;;;;;;;4.22;1.42;;;;;;;;;;5092051;28;20388;-83
2022/07/06 06:37:02;;;;;;;4.50;1.53;;;;;;;;;;5090965;28;20372;-84
2022/07/06 06:39:28;;;;;;;6.22;1.35;;;;;;;;;;5090589;28;20473;-83
2022/07/06 06:41:54;;;;;;;2.88;1.25;;;;;;;;;;5093022;28;20376;-84
2022/07/06 06:44:22;;;;;;;3.90;1.33;;;;;;;;;;5093124;28;20754;-83
2022/07/06 06:46:49;;;;;;;2.38;1.13;;;;;;;;;;5074639;28;20458;-83
2022/07/06 06:49:15;;;;;;;3.53;1.27;;;;;;;;;;5077128;28;20920;-83
2022/07/06 06:51:41;;;;;;;3.22;1.10;;;;;;;;;;5083787;28;20376;-83
2022/07/06 06:54:07;;;;;;;4.90;1.58;;;;;;;;;;5093271;28;21147;-84
2022/07/06 06:56:33;;;;;;;4.93;1.40;;;;;;;;;;5074363;28;20736;-81
2022/07/06 06:58:59;;;;;;;4.68;1.52;;;;;;;;;;5070574;28;20906;-83
2022/07/06 07:01:25;;;;;;;5.55;1.50;;;;;;;;;;5072077;28;20377;-83
2022/07/06 07:03:52;;;;;;;3.25;1.02;;;;;;;;;;5071291;28;20378;-83
2022/07/06 07:06:18;;;;;;;2.80;1.10;;;;;;;;;;5072640;28;20374;-83
2022/07/06 07:08:44;;;;;;;3.10;1.10;;;;;;;;;;5090523;28;20407;-84
2022/07/06 07:11:10;;;;;;;4.38;1.20;;;;;;;;;;5088668;28;20388;-82
2022/07/06 07:13:36;;;;;;;6.27;1.43;;;;;;;;;;5089693;28;20406;-84
2022/07/06 07:16:02;;;;;;;4.65;1.48;;;;;;;;;;5092499;28;20858;-83
2022/07/06 07:18:28;;;;;;;2.65;1.20;;;;;;;;;;5092580;28;20372;-83
2022/07/06 07:20:54;;;;;;;4.60;1.30;;;;;;;;;;5092337;28;20413;-83
2022/07/06 07:23:20;;;;;;;5.60;1.30;;;;;;;;;;5091972;28;20858;-82
2022/07/06 07:25:46;;;;;;;5.73;1.37;;;;;;;;;;5090976;28;20889;-82
2022/07/06 07:28:12;;;;;;;6.97;1.20;;;;;;;;;;5091910;28;20369;-84
2022/07/06 07:30:38;;;;;;;4.18;1.40;;;;;;;;;;5093656;28;20408;-79
2022/07/06 07:33:04;;;;;;;5.45;1.52;;;;;;;;;;5098959;28;20388;-84
2022/07/06 07:35:30;;;;;;;4.45;1.33;;;;;;;;;;5093106;28;20371;-82
2022/07/06 07:37:56;;;;;;;3.25;1.15;;;;;;;;;;5093325;28;20806;-83
2022/07/06 07:40:22;;;;;;;4.38;1.17;;;;;;;;;;5085599;28;20384;-84
2022/07/06 07:42:51;;;;;;;4.40;1.40;;;;;;;;;;5093765;28;20769;-82
2022/07/06 07:45:19;;;;;;;8.63;1.40;;;22.00;99.90;;;;;;5085900;28;20398;-82
2022/07/06 07:47:44;;;;;;;15.15;2.58;;;22.20;99.90;;;;;;5080038;28;20368;-84
2022/07/06 07:50:12;;;;;;;5.68;1.58;;;;;;;;;;5087121;28;20904;-83
2022/07/06 07:52:38;;;;;;;7.28;1.50;;;;;;;;;;5082881;28;20512;-84
2022/07/06 07:55:05;;;;;;;5.07;1.30;;;;;;;;;;5087246;28;20384;-83
2022/07/06 07:57:31;;;;;;;3.40;1.20;;;;;;;;;;5086779;28;20373;-84
2022/07/06 07:59:57;;;;;;;4.20;0.90;;;;;;;;;;5087432;28;20431;-84
2022/07/06 08:02:23;;;;;;;4.00;1.23;;;;;;;;;;5087280;28;20459;-84
2022/07/06 08:04:49;;;;;;;3.50;1.10;;;;;;;;;;5086265;28;20389;-84
2022/07/06 08:07:15;;;;;;;3.10;1.00;;;22.70;95.50;;;;;;5088198;28;20383;-83
2022/07/06 08:09:41;;;;;;;2.40;1.20;;;22.50;95.10;;;;;;5086833;28;20500;-84
2022/07/06 08:12:07;;;;;;;3.28;1.20;;;22.20;95.80;;;;;;5086842;28;20377;-82
2022/07/06 08:14:32;;;;;;;4.27;1.30;;;22.00;96.50;;;;;;5087044;28;20719;-81
2022/07/06 08:16:58;;;;;;;4.95;1.20;;;21.90;96.20;;;;;;5085666;28;20469;-83
2022/07/06 08:19:24;;;;;;;4.10;1.50;;;21.90;96.80;;;;;;5084473;28;20384;-82
2022/07/06 08:21:49;;;;;;;3.38;1.00;;;21.90;96.00;;;;;;5086561;28;20404;-83
2022/07/06 08:24:15;;;;;;;2.80;1.17;;;21.80;95.20;;;;;;5086378;28;20369;-83
2022/07/06 08:26:41;;;;;;;3.78;1.20;;;21.90;95.50;;;;;;5085634;28;20864;-84
2022/07/06 08:29:06;;;;;;;2.97;1.08;;;22.00;95.40;;;;;;5084935;28;20488;-84
2022/07/06 08:31:34;;;;;;;3.60;1.20;;;22.20;94.60;;;;;;5085630;28;20400;-85
2022/07/06 08:34:00;;;;;;;7.97;1.42;;;22.10;95.30;;;;;;5084168;28;20966;-83
2022/07/06 08:36:26;;;;;;;2.03;1.10;;;22.10;94.90;;;;;;5084418;28;20380;-84
2022/07/06 08:38:53;;;;;;;4.38;1.00;;;22.20;95.10;;;;;;5086469;28;20380;-84
2022/07/06 08:41:23;;;;;;;3.25;1.00;;;22.30;93.80;;;;;;5084908;28;20466;-84
2022/07/06 08:43:51;;;;;;;3.43;1.37;;;22.40;93.60;;;;;;5085801;28;20759;-82
2022/07/06 08:46:18;;;;;;;2.55;1.10;;;22.40;93.60;;;;;;5086073;28;20390;-84
2022/07/06 08:48:45;;;;;;;3.08;1.00;;;22.70;93.90;;;;;;5085091;28;20388;-84
2022/07/06 08:51:13;;;;;;;7.00;1.55;;;22.80;94.30;;;;;;5088146;28;20847;-83
2022/07/06 08:53:44;;;;;;;5.18;1.00;;;23.00;92.90;;;;;;5086710;28;20422;-84
2022/07/06 08:56:10;;;;;;;2.70;1.00;;;;;;;;;;5085901;28;20410;-83
2022/07/06 08:58:37;;;;;;;2.75;1.08;;;;;;;;;;5084518;28;20400;-83
2022/07/06 09:01:03;;;;;;;4.07;1.13;;;;;;;;;;5087887;28;20368;-82
2022/07/06 09:03:32;;;;;;;2.33;1.20;;;;;;;;;;5083999;28;20525;-84
2022/07/06 09:06:01;;;;;;;6.57;1.00;;;;;;;;;;5084312;28;20356;-84
2022/07/06 09:08:30;;;;;;;3.83;1.15;;;21.50;99.90;;;;;;5084227;28;20903;-84
2022/07/06 09:10:55;;;;;;;2.92;1.00;;;21.40;99.90;;;;;;5084217;28;20439;-83
2022/07/06 09:13:21;;;;;;;9.77;1.40;;;20.90;99.90;;;;;;5084558;28;20392;-85
2022/07/06 09:15:46;;;;;;;4.80;1.33;;;20.50;99.90;;;;;;5084363;28;20409;-84
2022/07/06 09:18:12;;;;;;;3.63;0.90;;;20.30;99.90;;;;;;5085099;28;20371;-83
2022/07/06 09:20:40;;;;;;;5.23;1.10;;;20.20;99.90;;;;;;5084640;28;20396;-84
2022/07/06 09:23:08;;;;;;;3.95;1.13;;;20.30;99.90;;;;;;5085502;28;20461;-85
2022/07/06 09:25:35;;;;;;;2.38;1.13;;;20.60;99.90;;;;;;5084076;28;20395;-84
2022/07/06 09:28:02;;;;;;;7.38;1.80;;;20.70;97.00;;;;;;5083609;28;20367;-81
2022/07/06 09:30:31;;;;;;;2.60;1.00;;;20.90;95.70;;;;;;5084271;28;20518;-84
2022/07/06 09:32:59;;;;;;;3.30;1.00;;;;;;;;;;5085655;28;20375;-83
2022/07/06 09:35:38;;;;;;;4.95;1.10;;;;;;;;;;5084390;28;20907;-84
2022/07/06 09:38:10;;;;;;;3.13;1.00;;;20.30;99.90;;;;;;5087116;28;20372;-84
2022/07/06 09:40:42;;;;;;;2.83;0.90;;;20.10;96.20;;;;;;5087678;28;20388;-82
2022/07/06 09:43:16;;;;;;;4.63;1.10;;;19.90;96.40;;;;;;5087216;28;20374;-83
2022/07/06 09:45:44;;;;;;;2.70;0.80;;;19.80;97.30;;;;;;5084518;28;20399;-83
2022/07/06 09:48:13;;;;;;;3.85;0.90;;;18.70;99.90;;;;;;5087568;28;20360;-83
2022/07/06 09:50:43;;;;;;;3.67;1.00;;;20.30;99.90;;;;;;5084513;28;20886;-82
2022/07/06 09:53:14;;;;;;;4.63;1.08;;;20.60;99.90;;;;;;5086977;28;20819;-84
2022/07/06 09:55:55;;;;;;;3.53;1.02;;;21.00;99.90;;;;;;5084311;28;20383;-83
2022/07/06 09:58:22;;;;;;;1.92;0.88;;;21.50;96.10;;;;;;5081328;28;20746;-85
2022/07/06 10:00:56;;;;;;;2.17;0.80;;;21.70;97.80;;;;;;5084478;28;20433;-84
2022/07/06 10:03:23;;;;;;;2.63;1.13;;;;;;;;;;5083579;28;20403;-84
2022/07/06 10:05:56;;;;;;;2.03;0.70;;;22.50;91.70;;;;;;5083901;28;20553;-85
2022/07/06 10:08:29;;;;;;;1.73;0.80;;;22.60;92.00;;;;;;5086445;28;20376;-84
2022/07/06 10:10:56;;;;;;;2.78;1.15;;;22.80;92.50;;;;;;5086016;28;20404;-83
2022/07/06 10:13:24;;;;;;;5.43;1.00;;;;;;;;;;5081455;28;20396;-82
2022/07/06 10:15:54;;;;;;;5.25;1.00;;;22.90;92.10;;;;;;5083697;27;20384;-84
2022/07/06 10:18:20;;;;;;;2.85;1.00;;;22.80;99.90;;;;;;5087339;28;20467;-86
2022/07/06 10:20:45;;;;;;;5.68;1.10;;;23.00;92.80;;;;;;5090657;28;20771;-82
2022/07/06 10:23:15;;;;;;;3.70;1.03;;;;;;;;;;5087997;28;20507;-82
2022/07/06 10:25:44;;;;;;;3.30;1.08;;;;;;;;;;5089589;28;20429;-85
2022/07/06 10:28:14;;;;;;;5.68;1.05;;;;;;;;;;5090832;28;20385;-83
2022/07/06 10:30:41;;;;;;;4.43;1.00;;;;;;;;;;5089403;28;21118;-84
2022/07/06 10:33:08;;;;;;;2.80;0.77;;;23.50;91.60;;;;;;5091143;28;20389;-85
2022/07/06 10:35:41;;;;;;;5.95;1.00;;;23.20;91.60;;;;;;5087123;28;20376;-86
2022/07/06 10:38:16;;;;;;;4.80;1.00;;;22.50;91.80;;;;;;5088755;28;20373;-85
2022/07/06 10:41:07;;;;;;;3.30;1.13;;;22.20;92.40;;;;;;5088074;28;20476;-85
2022/07/06 10:43:42;;;;;;;2.97;0.80;;;22.00;93.30;;;;;;5092081;28;20391;-85
2022/07/06 10:46:19;;;;;;;3.72;0.80;;;21.80;92.90;;;;;;5088533;27;20418;-85
2022/07/06 10:48:46;;;;;;;2.17;0.73;;;21.60;93.00;;;;;;5089967;28;20510;-84
2022/07/06 10:51:26;;;;;;;1.45;0.70;;;21.50;93.40;;;;;;5085270;28;20480;-84
2022/07/06 10:54:08;;;;;;;4.13;0.82;;;21.50;93.60;;;;;;5086798;28;20789;-85
2022/07/06 10:56:47;;;;;;;3.30;0.90;;;21.50;93.60;;;;;;5088460;28;20407;-84
2022/07/06 10:59:17;;;;;;;2.95;0.90;;;21.20;93.10;;;;;;5086548;28;20392;-84
2022/07/06 11:02:16;;;;;;;3.10;0.90;;;21.10;93.30;;;;;;5086379;28;20889;-83
2022/07/06 11:04:50;;;;;;;3.55;1.00;;;21.30;94.20;;;;;;5087442;28;20474;-83
2022/07/06 11:07:18;;;;;;;1.75;0.85;;;21.70;93.90;;;;;;5086410;28;20384;-83
2022/07/06 11:09:59;;;;;;;2.72;0.90;;;22.40;92.70;;;;;;5087097;28;20432;-84
2022/07/06 11:12:25;;;;;;;3.70;0.70;;;22.60;93.20;;;;;;5089607;28;20520;-83
2022/07/06 11:14:52;;;;;;;2.42;0.73;;;22.80;91.60;;;;;;5088024;28;20975;-83
2022/07/06 11:17:19;;;;;;;4.93;1.02;;;22.70;99.60;;;;;;5087677;28;20526;-84
2022/07/06 11:19:58;;;;;;;3.20;1.00;;;22.30;91.60;;;;;;5087193;28;20463;-84
2022/07/06 11:22:42;;;;;;;1.85;0.77;;;21.80;99.90;;;;;;5086681;28;21123;-84
2022/07/06 11:25:09;;;;;;;2.10;0.70;;;;;;;;;;5085310;28;20381;-84
2022/07/06 11:27:36;;;;;;;2.63;0.80;;;;;;;;;;5087103;28;20376;-83
2022/07/06 11:30:06;;;;;;;2.92;0.73;;;;;;;;;;5090622;28;20431;-83
2022/07/06 11:32:33;;;;;;;4.20;0.82;;;;;;;;;;5087842;28;20463;-81
2022/07/06 11:34:59;;;;;;;2.37;1.03;;;;;;;;;;5086719;28;20401;-83
2022/07/06 11:37:25;;;;;;;3.08;0.70;;;;;;;;;;5086175;28;20364;-81
2022/07/06 11:39:51;;;;;;;3.85;1.10;;;;;;;;;;5085350;28;20866;-83
2022/07/06 11:42:18;;;;;;;2.17;0.80;;;;;;;;;;5089033;28;20357;-82
2022/07/06 11:44:44;;;;;;;4.10;1.00;;;21.70;93.60;;;;;;5088208;28;20372;-82
2022/07/06 11:47:11;;;;;;;2.78;1.00;;;21.80;93.50;;;;;;5090026;28;20412;-83
2022/07/06 11:49:39;;;;;;;2.35;0.77;;;22.10;93.70;;;;;;5088829;28;20411;-83
2022/07/06 11:52:07;;;;;;;6.05;1.10;;;22.40;93.00;;;;;;5086186;28;20468;-84
2022/07/06 11:54:33;;;;;;;2.28;0.90;;;22.60;92.90;;;;;;5086669;28;20401;-83
2022/07/06 11:56:59;;;;;;;2.20;0.90;;;23.00;92.20;;;;;;5089049;28;20381;-83
2022/07/06 11:59:26;;;;;;;5.88;0.90;;;23.00;91.70;;;;;;5088487;28;20380;-83
2022/07/06 12:02:09;;;;;;;3.17;0.80;;;22.90;92.60;;;;;;5087169;28;20356;-83
2022/07/06 12:04:37;;;;;;;2.47;0.93;;;22.80;91.40;;;;;;5087691;28;20488;-85
2022/07/06 12:07:08;;;;;;;1.67;0.80;;;22.70;91.90;;;;;;5085818;28;20377;-83
2022/07/06 12:09:38;;;;;;;3.17;1.00;;;22.80;92.30;;;;;;5086127;28;20401;-84
2022/07/06 12:12:08;;;;;;;4.97;1.20;;;22.80;91.60;;;;;;5086134;28;20755;-82
2022/07/06 12:14:37;;;;;;;2.10;1.00;;;23.00;92.20;;;;;;5085013;28;20425;-84
2022/07/06 12:17:14;;;;;;;4.60;0.90;;;23.30;91.50;;;;;;5085954;28;20906;-83
2022/07/06 12:19:40;;;;;;;3.22;0.80;;;23.60;91.20;;;;;;5085026;28;21162;-83
2022/07/06 12:22:07;;;;;;;2.47;0.77;;;23.90;91.30;;;;;;5086591;28;20384;-84
2022/07/06 12:24:34;;;;;;;1.92;0.90;;;;;;;;;;5085700;28;20380;-82
2022/07/06 12:27:30;;;;;;;3.03;0.80;;;;;;;;;;5085199;28;20381;-81
2022/07/06 12:30:08;;;;;;;3.40;0.73;;;;;;;;;;5075939;28;20771;-83
2022/07/06 12:32:36;;;;;;;3.00;1.10;;;;;;;;;;5085268;28;20381;-82
2022/07/06 12:35:09;;;;;;;2.47;1.00;;;;;;;;;;5084355;28;20755;-83
2022/07/06 12:37:35;;;;;;;1.60;0.70;;;;;;;;;;5085431;28;20369;-82
2022/07/06 12:40:01;;;;;;;1.08;0.60;;;;;;;;;;5084508;28;20373;-82
2022/07/06 12:42:28;;;;;;;2.45;0.75;;;;;;;;;;5085763;28;20404;-82
2022/07/06 12:44:54;;;;;;;2.63;0.98;;;;;;;;;;5086267;28;20361;-82
2022/07/06 12:47:23;;;;;;;1.77;0.60;;;;;;;;;;5084335;28;20391;-82
2022/07/06 12:49:49;;;;;;;3.72;0.85;;;;;;;;;;5085697;28;20896;-81
2022/07/06 12:52:16;;;;;;;1.85;0.88;;;;;;;;;;5083774;28;21047;-82
2022/07/06 12:54:47;;;;;;;1.90;0.63;;;;;;;;;;5086982;28;20391;-82
2022/07/06 12:57:13;;;;;;;3.55;0.90;;;;;;;;;;5087240;28;20368;-83
2022/07/06 12:59:43;;;;;;;2.10;0.70;;;;;;;;;;5084821;28;20475;-84
2022/07/06 13:02:17;;;;;;;2.97;1.00;;;;;;;;;;5086349;28;20411;-83
2022/07/06 13:04:43;;;;;;;3.80;0.88;;;;;;;;;;5084680;28;21019;-82
2022/07/06 13:07:19;;;;;;;2.60;0.70;;;;;;;;;;5086830;28;20373;-83
2022/07/06 13:09:45;;;;;;;1.27;0.63;;;;;;;;;;5087995;28;20495;-83
2022/07/06 13:12:11;;;;;;;2.63;0.90;;;;;;;;;;5085198;28;20367;-81
2022/07/06 13:14:37;;;;;;;2.58;0.77;;;;;;;;;;5085280;28;20443;-82
2022/07/06 13:17:03;;;;;;;2.28;0.70;;;;;;;;;;5084548;28;20447;-84
2022/07/06 13:19:30;;;;;;;1.88;0.52;;;;;;;;;;5085444;28;20421;-84
2022/07/06 13:21:56;;;;;;;2.92;0.70;;;;;;;;;;5084684;28;20715;-85
2022/07/06 13:24:22;;;;;;;2.93;0.80;;;;;;;;;;5096407;28;20939;-85
2022/07/06 13:26:50;;;;;;;4.18;0.68;;;24.10;88.10;;;;;;5086853;28;20426;-81